sensor_id;sensor_type;location;lat;lon;timestamp;temperature;humidity
24224;DHT22;12359;49.716;9.212;2023-02-21T00:02:20;6.80;1.00
24224;DHT22;12359;49.716;9.212;2023-02-21T00:05:04;6.70;1.00
24224;DHT22;12359;49.716;9.212;2023-02-21T00:07:48;6.70;1.00
24224;DHT22;12359;49.716;9.212;2023-02-21T00:10:32;6.70;1.00
24224;DHT22;12359;49.716;9.212;2023-02-21T00:13:16;6.60;1.00
24224;DHT22;12359;49.716;9.212;2023-02-21T00:16:01;6.50;1.00
24224;DHT22;12359;49.716;9.212;2023-02-21T00:18:45;6.50;1.00
24224;DHT22;12359;49.716;9.212;2023-02-21T00:21:29;6.40;1.00
24224;DHT22;12359;49.716;9.212;2023-02-21T00:24:18;6.40;1.00
24224;DHT22;12359;49.716;9.212;2023-02-21T00:27:02;6.30;1.00
24224;DHT22;12359;49.716;9.212;2023-02-21T00:29:48;6.30;1.00
24224;DHT22;12359;49.716;9.212;2023-02-21T00:32:32;6.30;1.00
24224;DHT22;12359;49.716;9.212;2023-02-21T00:35:16;6.20;2.00
24224;DHT22;12359;49.716;9.212;2023-02-21T00:38:00;6.10;3.80
24224;DHT22;12359;49.716;9.212;2023-02-21T00:40:44;6.10;1.80
24224;DHT22;12359;49.716;9.212;2023-02-21T00:43:30;6.00;1.00
24224;DHT22;12359;49.716;9.212;2023-02-21T00:46:17;6.00;1.00
24224;DHT22;12359;49.716;9.212;2023-02-21T00:49:02;6.00;1.00
24224;DHT22;12359;49.716;9.212;2023-02-21T00:51:47;5.90;9.30
24224;DHT22;12359;49.716;9.212;2023-02-21T00:54:31;5.90;9.90
24224;DHT22;12359;49.716;9.212;2023-02-21T00:57:15;5.90;13.70
24224;DHT22;12359;49.716;9.212;2023-02-21T00:59:59;5.90;9.50
24224;DHT22;12359;49.716;9.212;2023-02-21T01:02:44;5.80;9.70
24224;DHT22;12359;49.716;9.212;2023-02-21T01:05:28;5.70;15.90
24224;DHT22;12359;49.716;9.212;2023-02-21T01:08:13;5.70;13.70
24224;DHT22;12359;49.716;9.212;2023-02-21T01:10:57;5.70;8.80
24224;DHT22;12359;49.716;9.212;2023-02-21T01:13:42;5.60;10.30
24224;DHT22;12359;49.716;9.212;2023-02-21T01:16:30;5.60;7.60
24224;DHT22;12359;49.716;9.212;2023-02-21T01:19:15;5.60;6.80
24224;DHT22;12359;49.716;9.212;2023-02-21T01:22:00;5.50;8.50
24224;DHT22;12359;49.716;9.212;2023-02-21T01:24:44;5.50;7.60
24224;DHT22;12359;49.716;9.212;2023-02-21T01:27:31;5.40;5.80
24224;DHT22;12359;49.716;9.212;2023-02-21T01:30:15;5.40;8.20
24224;DHT22;12359;49.716;9.212;2023-02-21T01:32:59;5.30;14.60
24224;DHT22;12359;49.716;9.212;2023-02-21T01:35:43;5.30;16.60
24224;DHT22;12359;49.716;9.212;2023-02-21T01:38:27;5.30;15.70
24224;DHT22;12359;49.716;9.212;2023-02-21T01:41:12;5.30;15.10
24224;DHT22;12359;49.716;9.212;2023-02-21T01:44:01;5.20;20.30
24224;DHT22;12359;49.716;9.212;2023-02-21T01:46:46;5.20;26.90
24224;DHT22;12359;49.716;9.212;2023-02-21T01:49:32;5.10;24.00
24224;DHT22;12359;49.716;9.212;2023-02-21T01:52:16;5.10;22.60
24224;DHT22;12359;49.716;9.212;2023-02-21T01:55:02;5.10;21.70
24224;DHT22;12359;49.716;9.212;2023-02-21T01:57:47;5.10;23.80
24224;DHT22;12359;49.716;9.212;2023-02-21T02:00:31;5.00;25.10
24224;DHT22;12359;49.716;9.212;2023-02-21T02:03:18;5.00;22.80
24224;DHT22;12359;49.716;9.212;2023-02-21T02:06:07;5.00;22.10
24224;DHT22;12359;49.716;9.212;2023-02-21T02:08:51;4.90;26.30
24224;DHT22;12359;49.716;9.212;2023-02-21T02:36:39;4.50;29.40
24224;DHT22;12359;49.716;9.212;2023-02-21T02:39:32;4.50;32.90
24224;DHT22;12359;49.716;9.212;2023-02-21T02:45:02;4.50;33.50
24224;DHT22;12359;49.716;9.212;2023-02-21T02:47:36;4.50;33.00
24224;DHT22;12359;49.716;9.212;2023-02-21T02:50:04;4.50;36.50
24224;DHT22;12359;49.716;9.212;2023-02-21T02:52:31;4.40;36.80
24224;DHT22;12359;49.716;9.212;2023-02-21T02:55:03;4.40;38.50
24224;DHT22;12359;49.716;9.212;2023-02-21T02:57:31;4.40;37.00
24224;DHT22;12359;49.716;9.212;2023-02-21T03:00:06;4.30;35.80
24224;DHT22;12359;49.716;9.212;2023-02-21T03:03:09;4.30;39.40
24224;DHT22;12359;49.716;9.212;2023-02-21T03:08:26;4.30;36.90
24224;DHT22;12359;49.716;9.212;2023-02-21T03:11:13;4.40;38.20
24224;DHT22;12359;49.716;9.212;2023-02-21T03:13:45;4.30;38.40
24224;DHT22;12359;49.716;9.212;2023-02-21T03:16:16;4.40;37.30
24224;DHT22;12359;49.716;9.212;2023-02-21T03:18:48;4.40;38.00
24224;DHT22;12359;49.716;9.212;2023-02-21T03:21:42;4.30;37.40
24224;DHT22;12359;49.716;9.212;2023-02-21T03:24:07;4.30;36.10
24224;DHT22;12359;49.716;9.212;2023-02-21T03:26:36;4.40;41.40
24224;DHT22;12359;49.716;9.212;2023-02-21T03:29:04;4.30;42.10
24224;DHT22;12359;49.716;9.212;2023-02-21T03:31:36;4.20;43.80
24224;DHT22;12359;49.716;9.212;2023-02-21T03:34:05;4.20;46.20
24224;DHT22;12359;49.716;9.212;2023-02-21T03:36:31;4.20;44.40
24224;DHT22;12359;49.716;9.212;2023-02-21T03:38:57;4.10;44.30
24224;DHT22;12359;49.716;9.212;2023-02-21T03:41:23;4.10;42.80
24224;DHT22;12359;49.716;9.212;2023-02-21T03:43:48;4.10;43.30
24224;DHT22;12359;49.716;9.212;2023-02-21T03:46:14;4.10;42.60
24224;DHT22;12359;49.716;9.212;2023-02-21T03:48:40;4.10;44.00
24224;DHT22;12359;49.716;9.212;2023-02-21T03:51:09;4.10;43.50
24224;DHT22;12359;49.716;9.212;2023-02-21T03:53:34;4.10;45.00
24224;DHT22;12359;49.716;9.212;2023-02-21T03:56:00;4.10;43.10
24224;DHT22;12359;49.716;9.212;2023-02-21T03:58:25;4.10;44.60
24224;DHT22;12359;49.716;9.212;2023-02-21T04:00:51;4.00;44.00
24224;DHT22;12359;49.716;9.212;2023-02-21T04:03:18;4.00;44.70
24224;DHT22;12359;49.716;9.212;2023-02-21T04:05:44;4.00;44.00
24224;DHT22;12359;49.716;9.212;2023-02-21T04:08:10;4.00;46.60
24224;DHT22;12359;49.716;9.212;2023-02-21T04:10:35;3.90;42.70
24224;DHT22;12359;49.716;9.212;2023-02-21T04:13:01;3.90;42.30
24224;DHT22;12359;49.716;9.212;2023-02-21T04:15:27;3.90;44.60
24224;DHT22;12359;49.716;9.212;2023-02-21T04:17:52;3.90;42.00
24224;DHT22;12359;49.716;9.212;2023-02-21T04:20:18;3.90;40.50
24224;DHT22;12359;49.716;9.212;2023-02-21T04:22:44;3.90;44.80
24224;DHT22;12359;49.716;9.212;2023-02-21T04:25:09;3.80;44.10
24224;DHT22;12359;49.716;9.212;2023-02-21T04:27:35;3.80;40.90
24224;DHT22;12359;49.716;9.212;2023-02-21T04:30:01;3.80;43.40
24224;DHT22;12359;49.716;9.212;2023-02-21T04:32:26;3.80;43.50
24224;DHT22;12359;49.716;9.212;2023-02-21T04:34:52;3.70;45.00
24224;DHT22;12359;49.716;9.212;2023-02-21T04:37:18;3.70;45.10
24224;DHT22;12359;49.716;9.212;2023-02-21T04:39:44;3.70;45.80
24224;DHT22;12359;49.716;9.212;2023-02-21T04:42:10;3.70;46.70
24224;DHT22;12359;49.716;9.212;2023-02-21T04:44:36;3.70;43.20
24224;DHT22;12359;49.716;9.212;2023-02-21T04:47:02;3.70;44.50
24224;DHT22;12359;49.716;9.212;2023-02-21T04:49:30;3.60;45.50
24224;DHT22;12359;49.716;9.212;2023-02-21T04:51:56;3.60;48.70
24224;DHT22;12359;49.716;9.212;2023-02-21T04:54:25;3.70;57.10
24224;DHT22;12359;49.716;9.212;2023-02-21T04:56:50;3.70;59.00
24224;DHT22;12359;49.716;9.212;2023-02-21T04:59:16;3.70;73.60
24224;DHT22;12359;49.716;9.212;2023-02-21T05:01:42;3.80;74.20
24224;DHT22;12359;49.716;9.212;2023-02-21T05:04:08;3.80;75.90
24224;DHT22;12359;49.716;9.212;2023-02-21T05:06:33;3.80;74.90
24224;DHT22;12359;49.716;9.212;2023-02-21T05:08:59;3.80;70.80
24224;DHT22;12359;49.716;9.212;2023-02-21T05:11:26;3.80;68.30
24224;DHT22;12359;49.716;9.212;2023-02-21T05:13:52;3.80;69.30
24224;DHT22;12359;49.716;9.212;2023-02-21T05:16:18;3.80;76.60
24224;DHT22;12359;49.716;9.212;2023-02-21T05:18:46;3.80;79.70
24224;DHT22;12359;49.716;9.212;2023-02-21T05:21:13;3.90;79.90
24224;DHT22;12359;49.716;9.212;2023-02-21T05:23:40;3.90;78.00
24224;DHT22;12359;49.716;9.212;2023-02-21T05:26:12;3.80;80.00
24224;DHT22;12359;49.716;9.212;2023-02-21T05:28:39;3.80;78.90
24224;DHT22;12359;49.716;9.212;2023-02-21T05:31:06;3.80;82.20
24224;DHT22;12359;49.716;9.212;2023-02-21T05:33:32;3.90;81.40
24224;DHT22;12359;49.716;9.212;2023-02-21T05:35:58;3.90;79.20
24224;DHT22;12359;49.716;9.212;2023-02-21T05:38:24;4.00;76.50
24224;DHT22;12359;49.716;9.212;2023-02-21T05:40:51;4.00;71.60
24224;DHT22;12359;49.716;9.212;2023-02-21T05:43:17;4.00;72.20
24224;DHT22;12359;49.716;9.212;2023-02-21T05:45:42;4.10;70.40
24224;DHT22;12359;49.716;9.212;2023-02-21T05:48:08;4.10;69.50
24224;DHT22;12359;49.716;9.212;2023-02-21T05:50:34;4.10;68.40
24224;DHT22;12359;49.716;9.212;2023-02-21T05:53:00;4.10;60.90
24224;DHT22;12359;49.716;9.212;2023-02-21T05:55:26;4.00;59.00
24224;DHT22;12359;49.716;9.212;2023-02-21T05:57:52;4.00;59.50
24224;DHT22;12359;49.716;9.212;2023-02-21T06:00:24;4.00;61.80
24224;DHT22;12359;49.716;9.212;2023-02-21T06:02:51;4.00;61.80
24224;DHT22;12359;49.716;9.212;2023-02-21T06:05:18;3.90;63.90
24224;DHT22;12359;49.716;9.212;2023-02-21T06:07:44;4.00;65.50
24224;DHT22;12359;49.716;9.212;2023-02-21T06:10:10;3.90;64.30
24224;DHT22;12359;49.716;9.212;2023-02-21T06:12:35;3.90;65.40
24224;DHT22;12359;49.716;9.212;2023-02-21T06:15:02;3.80;68.40
24224;DHT22;12359;49.716;9.212;2023-02-21T06:17:32;3.90;70.30
24224;DHT22;12359;49.716;9.212;2023-02-21T06:19:57;3.90;67.60
24224;DHT22;12359;49.716;9.212;2023-02-21T06:22:23;3.80;69.90
24224;DHT22;12359;49.716;9.212;2023-02-21T06:24:49;3.80;72.80
24224;DHT22;12359;49.716;9.212;2023-02-21T06:27:14;3.80;72.90
24224;DHT22;12359;49.716;9.212;2023-02-21T06:29:40;3.80;74.40
24224;DHT22;12359;49.716;9.212;2023-02-21T06:32:06;3.80;75.70
24224;DHT22;12359;49.716;9.212;2023-02-21T06:34:32;3.80;74.20
24224;DHT22;12359;49.716;9.212;2023-02-21T06:36:58;3.90;75.60
24224;DHT22;12359;49.716;9.212;2023-02-21T06:39:23;3.90;71.30
24224;DHT22;12359;49.716;9.212;2023-02-21T06:41:50;3.90;66.00
24224;DHT22;12359;49.716;9.212;2023-02-21T06:44:16;4.00;65.30
24224;DHT22;12359;49.716;9.212;2023-02-21T06:46:42;4.00;61.10
24224;DHT22;12359;49.716;9.212;2023-02-21T06:49:08;4.00;60.40
24224;DHT22;12359;49.716;9.212;2023-02-21T06:51:36;4.20;64.10
24224;DHT22;12359;49.716;9.212;2023-02-21T06:54:02;4.40;64.60
24224;DHT22;12359;49.716;9.212;2023-02-21T06:56:28;4.80;67.40
24224;DHT22;12359;49.716;9.212;2023-02-21T06:58:55;5.20;45.70
24224;DHT22;12359;49.716;9.212;2023-02-21T07:01:21;5.90;37.60
24224;DHT22;12359;49.716;9.212;2023-02-21T07:03:48;6.70;17.80
24224;DHT22;12359;49.716;9.212;2023-02-21T07:06:14;7.30;99.90
24224;DHT22;12359;49.716;9.212;2023-02-21T07:08:40;8.20;99.90
24224;DHT22;12359;49.716;9.212;2023-02-21T07:11:06;8.90;1.00
24224;DHT22;12359;49.716;9.212;2023-02-21T07:13:32;9.50;99.90
24224;DHT22;12359;49.716;9.212;2023-02-21T07:15:59;9.70;99.90
24224;DHT22;12359;49.716;9.212;2023-02-21T07:18:25;9.30;99.90
24224;DHT22;12359;49.716;9.212;2023-02-21T07:20:50;8.80;99.90
24224;DHT22;12359;49.716;9.212;2023-02-21T07:23:16;8.20;84.00
24224;DHT22;12359;49.716;9.212;2023-02-21T07:25:42;8.00;99.90
24224;DHT22;12359;49.716;9.212;2023-02-21T07:28:11;7.80;99.90
24224;DHT22;12359;49.716;9.212;2023-02-21T07:30:36;7.40;19.60
24224;DHT22;12359;49.716;9.212;2023-02-21T07:33:02;7.00;99.90
24224;DHT22;12359;49.716;9.212;2023-02-21T07:35:28;6.70;99.90
24224;DHT22;12359;49.716;9.212;2023-02-21T07:37:53;6.40;1.00
24224;DHT22;12359;49.716;9.212;2023-02-21T07:40:19;6.20;1.00
24224;DHT22;12359;49.716;9.212;2023-02-21T07:42:45;6.20;1.00
24224;DHT22;12359;49.716;9.212;2023-02-21T07:45:14;6.10;1.00
24224;DHT22;12359;49.716;9.212;2023-02-21T07:47:40;6.40;1.00
24224;DHT22;12359;49.716;9.212;2023-02-21T07:50:09;7.10;1.00
24224;DHT22;12359;49.716;9.212;2023-02-21T07:52:34;8.00;99.90
24224;DHT22;12359;49.716;9.212;2023-02-21T07:55:00;9.00;1.00
24224;DHT22;12359;49.716;9.212;2023-02-21T07:57:26;10.10;99.90
24224;DHT22;12359;49.716;9.212;2023-02-21T07:59:55;10.70;41.20
24224;DHT22;12359;49.716;9.212;2023-02-21T08:02:20;11.10;99.90
24224;DHT22;12359;49.716;9.212;2023-02-21T08:04:50;10.60;1.00
24224;DHT22;12359;49.716;9.212;2023-02-21T08:07:16;10.40;1.00
24224;DHT22;12359;49.716;9.212;2023-02-21T08:09:42;9.90;99.90
24224;DHT22;12359;49.716;9.212;2023-02-21T08:12:08;9.80;99.90
24224;DHT22;12359;49.716;9.212;2023-02-21T08:14:36;9.80;99.90
24224;DHT22;12359;49.716;9.212;2023-02-21T08:17:02;10.10;1.00
24224;DHT22;12359;49.716;9.212;2023-02-21T08:19:27;10.50;99.90
24224;DHT22;12359;49.716;9.212;2023-02-21T08:21:53;10.90;99.90
24224;DHT22;12359;49.716;9.212;2023-02-21T08:24:19;11.90;1.00
24224;DHT22;12359;49.716;9.212;2023-02-21T08:26:45;12.40;1.00
24224;DHT22;12359;49.716;9.212;2023-02-21T08:29:11;13.20;99.90
24224;DHT22;12359;49.716;9.212;2023-02-21T08:31:39;13.60;99.90
24224;DHT22;12359;49.716;9.212;2023-02-21T08:34:06;14.00;11.50
24224;DHT22;12359;49.716;9.212;2023-02-21T08:36:33;14.80;1.00
24224;DHT22;12359;49.716;9.212;2023-02-21T08:38:59;15.30;99.90
24224;DHT22;12359;49.716;9.212;2023-02-21T08:41:25;15.50;99.90
24224;DHT22;12359;49.716;9.212;2023-02-21T08:43:51;15.30;99.90
24224;DHT22;12359;49.716;9.212;2023-02-21T08:46:16;15.80;99.90
24224;DHT22;12359;49.716;9.212;2023-02-21T08:48:42;16.40;99.90
24224;DHT22;12359;49.716;9.212;2023-02-21T08:51:08;17.00;99.90
24224;DHT22;12359;49.716;9.212;2023-02-21T08:53:34;17.30;63.10
24224;DHT22;12359;49.716;9.212;2023-02-21T08:56:02;17.90;30.80
24224;DHT22;12359;49.716;9.212;2023-02-21T08:58:28;18.10;6.20
24224;DHT22;12359;49.716;9.212;2023-02-21T09:00:53;18.30;1.00
24224;DHT22;12359;49.716;9.212;2023-02-21T09:03:19;18.20;1.00
24224;DHT22;12359;49.716;9.212;2023-02-21T09:05:44;18.50;1.00
24224;DHT22;12359;49.716;9.212;2023-02-21T09:08:10;19.00;1.00
24224;DHT22;12359;49.716;9.212;2023-02-21T09:10:36;19.30;1.00
24224;DHT22;12359;49.716;9.212;2023-02-21T09:13:03;19.10;1.00
24224;DHT22;12359;49.716;9.212;2023-02-21T09:15:28;19.10;1.00
24224;DHT22;12359;49.716;9.212;2023-02-21T09:17:54;18.90;1.00
24224;DHT22;12359;49.716;9.212;2023-02-21T09:20:24;19.50;1.00
24224;DHT22;12359;49.716;9.212;2023-02-21T09:22:50;20.00;1.00
24224;DHT22;12359;49.716;9.212;2023-02-21T09:25:20;19.20;1.00
24224;DHT22;12359;49.716;9.212;2023-02-21T09:27:47;19.70;1.00
24224;DHT22;12359;49.716;9.212;2023-02-21T09:30:18;20.10;1.00
24224;DHT22;12359;49.716;9.212;2023-02-21T09:32:46;20.10;1.00
24224;DHT22;12359;49.716;9.212;2023-02-21T09:35:13;20.40;1.00
24224;DHT22;12359;49.716;9.212;2023-02-21T09:37:40;20.40;1.00
24224;DHT22;12359;49.716;9.212;2023-02-21T09:42:41;20.50;1.00
24224;DHT22;12359;49.716;9.212;2023-02-21T09:45:14;20.60;1.00
24224;DHT22;12359;49.716;9.212;2023-02-21T09:47:40;20.60;1.00
24224;DHT22;12359;49.716;9.212;2023-02-21T09:50:13;21.20;1.00
24224;DHT22;12359;49.716;9.212;2023-02-21T09:52:40;21.20;1.00
24224;DHT22;12359;49.716;9.212;2023-02-21T09:55:19;21.50;1.00
24224;DHT22;12359;49.716;9.212;2023-02-21T09:57:47;21.40;1.00
24224;DHT22;12359;49.716;9.212;2023-02-21T10:00:21;20.50;1.00
24224;DHT22;12359;49.716;9.212;2023-02-21T10:06:03;20.90;1.00
24224;DHT22;12359;49.716;9.212;2023-02-21T10:08:41;21.60;1.00
24224;DHT22;12359;49.716;9.212;2023-02-21T10:16:33;21.60;1.00
24224;DHT22;12359;49.716;9.212;2023-02-21T10:19:17;21.00;1.00
24224;DHT22;12359;49.716;9.212;2023-02-21T10:21:47;21.70;1.00
24224;DHT22;12359;49.716;9.212;2023-02-21T10:24:19;21.90;1.00
24224;DHT22;12359;49.716;9.212;2023-02-21T10:27:01;21.90;1.00
24224;DHT22;12359;49.716;9.212;2023-02-21T10:32:16;22.60;1.00
24224;DHT22;12359;49.716;9.212;2023-02-21T10:34:44;22.60;1.00
24224;DHT22;12359;49.716;9.212;2023-02-21T10:37:42;22.70;1.00
24224;DHT22;12359;49.716;9.212;2023-02-21T10:43:15;22.70;1.00
24224;DHT22;12359;49.716;9.212;2023-02-21T10:46:03;22.80;1.00
24224;DHT22;12359;49.716;9.212;2023-02-21T10:48:35;22.40;1.00
24224;DHT22;12359;49.716;9.212;2023-02-21T10:53:35;22.80;1.00
24224;DHT22;12359;49.716;9.212;2023-02-21T10:59:00;22.30;1.00
24224;DHT22;12359;49.716;9.212;2023-02-21T11:01:34;22.20;1.00
24224;DHT22;12359;49.716;9.212;2023-02-21T11:08:57;23.00;1.00
24224;DHT22;12359;49.716;9.212;2023-02-21T11:11:40;22.80;1.00
24224;DHT22;12359;49.716;9.212;2023-02-21T11:16:41;23.00;1.00
24224;DHT22;12359;49.716;9.212;2023-02-21T11:19:13;22.70;1.00
24224;DHT22;12359;49.716;9.212;2023-02-21T11:21:40;22.90;1.00
24224;DHT22;12359;49.716;9.212;2023-02-21T11:24:10;22.90;1.00
24224;DHT22;12359;49.716;9.212;2023-02-21T11:26:37;23.10;1.00
24224;DHT22;12359;49.716;9.212;2023-02-21T11:29:13;23.30;1.00
24224;DHT22;12359;49.716;9.212;2023-02-21T11:31:39;23.00;1.00
24224;DHT22;12359;49.716;9.212;2023-02-21T11:34:08;23.50;1.00
24224;DHT22;12359;49.716;9.212;2023-02-21T11:36:36;23.30;1.00
24224;DHT22;12359;49.716;9.212;2023-02-21T11:39:17;23.40;1.00
24224;DHT22;12359;49.716;9.212;2023-02-21T11:41:47;23.40;1.00
24224;DHT22;12359;49.716;9.212;2023-02-21T11:52:02;22.30;1.00
24224;DHT22;12359;49.716;9.212;2023-02-21T11:54:30;22.60;1.00
24224;DHT22;12359;49.716;9.212;2023-02-21T12:16:25;22.30;1.00
24224;DHT22;12359;49.716;9.212;2023-02-21T12:21:25;22.40;1.00
24224;DHT22;12359;49.716;9.212;2023-02-21T12:24:27;22.30;1.00
24224;DHT22;12359;49.716;9.212;2023-02-21T12:32:40;22.00;1.00
24224;DHT22;12359;49.716;9.212;2023-02-21T12:48:50;21.10;1.00
24224;DHT22;12359;49.716;9.212;2023-02-21T12:51:27;21.50;1.00
24224;DHT22;12359;49.716;9.212;2023-02-21T12:56:50;21.20;1.00
24224;DHT22;12359;49.716;9.212;2023-02-21T12:59:26;21.00;1.00
24224;DHT22;12359;49.716;9.212;2023-02-21T13:02:09;20.80;1.00
24224;DHT22;12359;49.716;9.212;2023-02-21T13:07:42;20.80;1.00
24224;DHT22;12359;49.716;9.212;2023-02-21T13:10:19;20.80;1.00
24224;DHT22;12359;49.716;9.212;2023-02-21T13:13:01;20.70;1.00
24224;DHT22;12359;49.716;9.212;2023-02-21T13:15:29;20.90;1.00
24224;DHT22;12359;49.716;9.212;2023-02-21T13:20:56;20.80;1.00
24224;DHT22;12359;49.716;9.212;2023-02-21T13:23:49;20.20;1.00
24224;DHT22;12359;49.716;9.212;2023-02-21T13:29:37;19.50;1.00
24224;DHT22;12359;49.716;9.212;2023-02-21T13:32:12;19.20;1.00
24224;DHT22;12359;49.716;9.212;2023-02-21T13:34:40;18.90;1.00
24224;DHT22;12359;49.716;9.212;2023-02-21T13:37:17;18.70;1.00
24224;DHT22;12359;49.716;9.212;2023-02-21T13:39:48;18.40;1.00
24224;DHT22;12359;49.716;9.212;2023-02-21T13:42:16;18.40;1.00
24224;DHT22;12359;49.716;9.212;2023-02-21T13:44:49;18.40;20.10
24224;DHT22;12359;49.716;9.212;2023-02-21T13:47:21;18.40;32.10
24224;DHT22;12359;49.716;9.212;2023-02-21T13:49:51;18.40;38.80
24224;DHT22;12359;49.716;9.212;2023-02-21T14:10:55;18.60;97.30
24224;DHT22;12359;49.716;9.212;2023-02-21T14:13:23;18.50;99.20
24224;DHT22;12359;49.716;9.212;2023-02-21T14:29:13;18.00;99.90
24224;DHT22;12359;49.716;9.212;2023-02-21T14:40:29;18.10;93.40
24224;DHT22;12359;49.716;9.212;2023-02-21T15:12:52;17.60;99.90
24224;DHT22;12359;49.716;9.212;2023-02-21T15:15:29;17.50;99.90
24224;DHT22;12359;49.716;9.212;2023-02-21T15:17:58;17.40;99.90
24224;DHT22;12359;49.716;9.212;2023-02-21T15:20:25;17.40;99.90
24224;DHT22;12359;49.716;9.212;2023-02-21T15:23:28;17.30;99.90
24224;DHT22;12359;49.716;9.212;2023-02-21T15:25:58;17.20;99.90
24224;DHT22;12359;49.716;9.212;2023-02-21T15:28:26;17.20;99.90
24224;DHT22;12359;49.716;9.212;2023-02-21T15:31:05;17.10;99.90
24224;DHT22;12359;49.716;9.212;2023-02-21T15:33:40;17.00;99.90
24224;DHT22;12359;49.716;9.212;2023-02-21T15:36:17;17.00;99.90
24224;DHT22;12359;49.716;9.212;2023-02-21T15:39:21;17.00;99.90
24224;DHT22;12359;49.716;9.212;2023-02-21T15:41:49;16.80;1.00
24224;DHT22;12359;49.716;9.212;2023-02-21T15:47:14;16.70;99.90
24224;DHT22;12359;49.716;9.212;2023-02-21T15:49:50;16.60;99.90
24224;DHT22;12359;49.716;9.212;2023-02-21T15:52:35;16.50;99.90
24224;DHT22;12359;49.716;9.212;2023-02-21T15:57:45;16.40;1.00
24224;DHT22;12359;49.716;9.212;2023-02-21T16:00:37;16.30;1.00
24224;DHT22;12359;49.716;9.212;2023-02-21T16:06:19;16.10;1.00
24224;DHT22;12359;49.716;9.212;2023-02-21T16:19:40;15.10;1.00
24224;DHT22;12359;49.716;9.212;2023-02-21T16:27:35;14.70;99.90
24224;DHT22;12359;49.716;9.212;2023-02-21T16:30:01;14.60;1.00
24224;DHT22;12359;49.716;9.212;2023-02-21T16:32:27;14.50;1.00
24224;DHT22;12359;49.716;9.212;2023-02-21T16:34:52;14.40;99.90
24224;DHT22;12359;49.716;9.212;2023-02-21T16:37:20;14.30;99.90
24224;DHT22;12359;49.716;9.212;2023-02-21T16:39:47;14.20;99.90
24224;DHT22;12359;49.716;9.212;2023-02-21T16:42:13;14.10;99.90
24224;DHT22;12359;49.716;9.212;2023-02-21T16:44:42;14.00;99.90
24224;DHT22;12359;49.716;9.212;2023-02-21T16:47:12;13.90;29.00
24224;DHT22;12359;49.716;9.212;2023-02-21T16:49:38;13.80;99.90
24224;DHT22;12359;49.716;9.212;2023-02-21T16:52:04;13.80;1.00
24224;DHT22;12359;49.716;9.212;2023-02-21T16:54:29;13.70;6.20
24224;DHT22;12359;49.716;9.212;2023-02-21T16:56:55;13.60;99.90
24224;DHT22;12359;49.716;9.212;2023-02-21T16:59:24;13.50;99.90
24224;DHT22;12359;49.716;9.212;2023-02-21T17:01:50;13.50;99.90
24224;DHT22;12359;49.716;9.212;2023-02-21T17:04:20;13.40;1.00
24224;DHT22;12359;49.716;9.212;2023-02-21T17:06:51;13.30;63.80
24224;DHT22;12359;49.716;9.212;2023-02-21T17:09:22;13.20;99.90
24224;DHT22;12359;49.716;9.212;2023-02-21T17:11:48;13.20;99.90
24224;DHT22;12359;49.716;9.212;2023-02-21T17:14:14;13.10;99.90
24224;DHT22;12359;49.716;9.212;2023-02-21T17:16:40;13.00;1.00
24224;DHT22;12359;49.716;9.212;2023-02-21T17:19:19;12.90;1.00
24224;DHT22;12359;49.716;9.212;2023-02-21T17:21:46;12.80;99.90
24224;DHT22;12359;49.716;9.212;2023-02-21T17:24:13;12.70;99.90
24224;DHT22;12359;49.716;9.212;2023-02-21T17:26:40;12.60;99.90
24224;DHT22;12359;49.716;9.212;2023-02-21T17:29:06;12.50;99.90
24224;DHT22;12359;49.716;9.212;2023-02-21T17:31:33;12.50;1.00
24224;DHT22;12359;49.716;9.212;2023-02-21T17:33:58;12.40;1.00
24224;DHT22;12359;49.716;9.212;2023-02-21T17:36:26;12.30;1.00
24224;DHT22;12359;49.716;9.212;2023-02-21T17:38:52;12.20;1.00
24224;DHT22;12359;49.716;9.212;2023-02-21T17:41:18;12.20;1.00
24224;DHT22;12359;49.716;9.212;2023-02-21T17:43:45;12.10;1.00
24224;DHT22;12359;49.716;9.212;2023-02-21T17:46:12;11.80;56.70
24224;DHT22;12359;49.716;9.212;2023-02-21T17:48:42;11.80;99.90
24224;DHT22;12359;49.716;9.212;2023-02-21T17:51:08;11.70;99.90
24224;DHT22;12359;49.716;9.212;2023-02-21T17:53:34;11.60;99.90
24224;DHT22;12359;49.716;9.212;2023-02-21T17:56:00;11.60;99.90
24224;DHT22;12359;49.716;9.212;2023-02-21T17:58:26;11.60;99.90
24224;DHT22;12359;49.716;9.212;2023-02-21T18:00:52;11.50;99.90
24224;DHT22;12359;49.716;9.212;2023-02-21T18:03:20;11.50;99.90
24224;DHT22;12359;49.716;9.212;2023-02-21T18:05:46;11.40;99.90
24224;DHT22;12359;49.716;9.212;2023-02-21T18:08:12;11.30;99.90
24224;DHT22;12359;49.716;9.212;2023-02-21T18:10:38;11.20;99.90
24224;DHT22;12359;49.716;9.212;2023-02-21T18:13:03;11.10;99.90
24224;DHT22;12359;49.716;9.212;2023-02-21T18:15:32;11.00;99.90
24224;DHT22;12359;49.716;9.212;2023-02-21T18:18:00;10.90;99.90
24224;DHT22;12359;49.716;9.212;2023-02-21T18:20:29;10.90;99.90
24224;DHT22;12359;49.716;9.212;2023-02-21T18:22:56;10.80;99.90
24224;DHT22;12359;49.716;9.212;2023-02-21T18:25:22;10.70;99.90
24224;DHT22;12359;49.716;9.212;2023-02-21T18:27:49;10.60;99.90
24224;DHT22;12359;49.716;9.212;2023-02-21T18:30:16;10.50;99.90
24224;DHT22;12359;49.716;9.212;2023-02-21T18:32:42;10.50;99.90
24224;DHT22;12359;49.716;9.212;2023-02-21T18:35:07;10.50;1.00
24224;DHT22;12359;49.716;9.212;2023-02-21T18:37:33;10.50;1.00
24224;DHT22;12359;49.716;9.212;2023-02-21T18:40:02;10.50;1.00
24224;DHT22;12359;49.716;9.212;2023-02-21T18:42:30;10.40;1.00
24224;DHT22;12359;49.716;9.212;2023-02-21T18:44:56;10.10;1.00
24224;DHT22;12359;49.716;9.212;2023-02-21T18:47:24;10.00;1.00
24224;DHT22;12359;49.716;9.212;2023-02-21T18:49:49;9.80;1.00
24224;DHT22;12359;49.716;9.212;2023-02-21T18:52:15;9.80;1.00
24224;DHT22;12359;49.716;9.212;2023-02-21T18:54:43;9.70;1.00
24224;DHT22;12359;49.716;9.212;2023-02-21T18:57:09;9.70;1.00
24224;DHT22;12359;49.716;9.212;2023-02-21T18:59:34;9.70;1.00
24224;DHT22;12359;49.716;9.212;2023-02-21T19:02:01;9.60;1.00
24224;DHT22;12359;49.716;9.212;2023-02-21T19:04:27;9.70;1.00
24224;DHT22;12359;49.716;9.212;2023-02-21T19:06:52;9.70;1.00
24224;DHT22;12359;49.716;9.212;2023-02-21T19:09:18;9.60;1.00
24224;DHT22;12359;49.716;9.212;2023-02-21T19:11:44;9.60;1.00
24224;DHT22;12359;49.716;9.212;2023-02-21T19:14:09;9.50;1.00
24224;DHT22;12359;49.716;9.212;2023-02-21T19:16:35;9.40;1.00
24224;DHT22;12359;49.716;9.212;2023-02-21T19:19:01;9.30;1.00
24224;DHT22;12359;49.716;9.212;2023-02-21T19:21:30;9.20;1.00
24224;DHT22;12359;49.716;9.212;2023-02-21T19:23:56;9.20;1.00
24224;DHT22;12359;49.716;9.212;2023-02-21T19:26:26;9.10;1.00
24224;DHT22;12359;49.716;9.212;2023-02-21T19:28:51;9.10;1.00
24224;DHT22;12359;49.716;9.212;2023-02-21T19:31:18;9.00;1.00
24224;DHT22;12359;49.716;9.212;2023-02-21T19:33:44;9.00;5.50
24224;DHT22;12359;49.716;9.212;2023-02-21T19:36:10;9.00;4.60
24224;DHT22;12359;49.716;9.212;2023-02-21T19:38:36;8.90;4.70
24224;DHT22;12359;49.716;9.212;2023-02-21T19:41:06;8.90;4.60
24224;DHT22;12359;49.716;9.212;2023-02-21T19:43:33;8.80;5.70
24224;DHT22;12359;49.716;9.212;2023-02-21T19:46:01;8.70;9.30